Time;durP1;ratioP1;P1;durP2;ratioP2;P2;SDS_P1;SDS_P2;PMS_P1;PMS_P2;Temp;Humidity;BMP_temperature;BMP_pressure;BME280_temperature;BME280_humidity;BME280_pressure;Samples;Min_cycle;Max_cycle;Signal;HPM_P1;HPM_P2
2023/01/09 00:01:48;;;;;;;8.15;1.20;;;;;;;;;;5041817;28;20058;-66
2023/01/09 00:04:19;;;;;;;4.10;0.90;;;;;;;;;;5073036;28;20534;-65
2023/01/09 00:06:52;;;;;;;4.20;1.17;;;;;;;;;;5091330;28;20056;-65
2023/01/09 00:09:24;;;;;;;3.33;1.00;;;;;;;;;;5091905;28;20048;-65
2023/01/09 00:11:54;;;;;;;8.73;1.00;;;;;;;;;;5091546;28;20130;-66
2023/01/09 00:14:23;;;;;;;2.17;0.85;;;;;;;;;;5091670;28;20044;-66
2023/01/09 00:16:55;;;;;;;5.15;1.00;;;;;;;;;;5057576;28;20052;-65
2023/01/09 00:19:25;;;;;;;6.30;0.95;;;;;;;;;;5092009;28;20531;-65
2023/01/09 00:21:55;;;;;;;6.25;1.58;;;;;;;;;;5091585;28;20403;-65
2023/01/09 00:24:25;;;;;;;7.60;1.10;;;;;;;;;;5041426;28;20060;-65
2023/01/09 00:26:54;;;;;;;6.03;1.05;;;;;;;;;;5072513;28;20044;-65
2023/01/09 00:29:24;;;;;;;7.10;1.15;;;;;;;;;;5051150;28;20045;-64
2023/01/09 00:31:54;;;;;;;3.40;1.10;;;;;;;;;;5051223;28;20057;-65
2023/01/09 00:34:25;;;;;;;5.68;1.17;;;;;;;;;;5001547;28;20536;-65
2023/01/09 00:36:55;;;;;;;3.13;1.05;;;;;;;;;;5001303;28;20051;-65
2023/01/09 00:39:24;;;;;;;4.57;1.20;;;;;;;;;;5051168;28;20049;-65
2023/01/09 00:41:57;;;;;;;7.57;1.10;;;;;;;;;;5051181;28;20687;-65
2023/01/09 00:44:32;;;;;;;4.22;1.13;;;;;;;;;;5051056;28;20505;-65
2023/01/09 00:47:09;;;;;;;6.07;1.17;;;;;;;;;;5001755;28;20065;-65
2023/01/09 00:49:41;;;;;;;2.40;0.82;;;;;;;;;;5051023;28;20436;-66
2023/01/09 00:52:12;;;;;;;3.90;1.42;;;;;;;;;;5050840;28;20064;-66
2023/01/09 00:54:43;;;;;;;5.32;1.13;;;;;;;;;;5001884;28;20049;-67
2023/01/09 00:57:14;;;;;;;10.68;1.00;;;;;;;;;;5051034;28;20408;-66
2023/01/09 00:59:44;;;;;;;4.00;0.80;;;;;;;;;;5050780;28;20064;-65
2023/01/09 01:02:13;;;;;;;6.03;1.13;;;;;;;;;;5034315;28;20065;-66
2023/01/09 01:07:37;;;;;;;7.15;1.10;;;;;;;;;;5065036;28;20408;-66
2023/01/09 01:10:15;;;;;;;4.60;0.98;;;;;;;;;;5053739;28;20049;-65
2023/01/09 01:12:46;;;;;;;8.45;0.95;;;;;;;;;;5073220;28;20036;-65
2023/01/09 01:15:16;;;;;;;3.28;0.95;;;;;;;;;;5070796;28;20075;-65
2023/01/09 01:17:46;;;;;;;5.28;0.80;;;;;;;;;;5037576;28;21048;-65
2023/01/09 01:20:18;;;;;;;3.60;0.82;;;;;;;;;;5072935;28;20079;-65
2023/01/09 01:22:48;;;;;;;3.25;0.73;;;;;;;;;;5071839;28;20060;-66
2023/01/09 01:25:18;;;;;;;8.32;1.42;;;;;;;;;;5070418;28;20061;-65
2023/01/09 01:27:47;;;;;;;4.50;0.88;;;;;;;;;;5072879;28;20041;-65
2023/01/09 01:30:18;;;;;;;2.97;0.90;;;;;;;;;;5072753;28;20051;-65
2023/01/09 01:32:49;;;;;;;7.70;1.00;;;;;;;;;;5089947;28;20052;-65
2023/01/09 01:35:18;;;;;;;9.45;1.05;;;;;;;;;;5090316;28;20542;-65
2023/01/09 01:37:48;;;;;;;5.60;1.00;;;;;;;;;;5050201;28;20583;-65
2023/01/09 01:40:18;;;;;;;3.78;0.80;;;;;;;;;;5017060;28;20056;-65
2023/01/09 01:42:50;;;;;;;9.55;1.00;;;;;;;;;;5016814;28;20069;-66
2023/01/09 01:45:26;;;;;;;9.90;0.80;;;;;;;;;;5050243;28;20060;-65
2023/01/09 01:48:22;;;;;;;8.38;1.00;;;;;;;;;;5001570;28;20060;-65
2023/01/09 01:50:58;;;;;;;5.75;0.80;;;;;;;;;;4971021;28;20058;-66
2023/01/09 01:53:34;;;;;;;4.43;0.80;;;;;;;;;;4923388;28;20054;-65
2023/01/09 01:56:18;;;;;;;2.63;0.80;;;;;;;;;;4971013;28;20059;-65
2023/01/09 01:58:53;;;;;;;4.07;0.88;;;;;;;;;;4970768;28;20050;-65
2023/01/09 02:01:25;;;;;;;5.05;1.00;;;;;;;;;;4954702;28;20061;-66
2023/01/09 02:03:58;;;;;;;3.25;0.80;;;;;;;;;;4954659;28;20164;-65
2023/01/09 02:06:32;;;;;;;4.03;1.15;;;;;;;;;;4955091;28;20058;-65
2023/01/09 02:09:05;;;;;;;7.18;0.98;;;;;;;;;;4954801;28;20057;-64
2023/01/09 02:11:35;;;;;;;6.28;0.85;;;;;;;;;;4970618;28;20054;-65
2023/01/09 02:14:04;;;;;;;4.35;0.77;;;;;;;;;;4971058;28;20062;-65
2023/01/09 02:16:34;;;;;;;7.53;1.08;;;;;;;;;;5008197;28;20082;-65
2023/01/09 02:19:25;;;;;;;10.93;1.13;;;;;;;;;;5009576;28;20049;-65
2023/01/09 02:22:13;;;;;;;11.10;1.23;;;;;;;;;;4960840;28;20057;-65
2023/01/09 02:25:16;;;;;;;4.05;0.82;;;;;;;;;;5009918;28;20050;-65
2023/01/09 02:28:21;;;;;;;3.28;0.88;;;;;;;;;;5039584;28;20056;-66
2023/01/09 02:31:14;;;;;;;3.40;1.10;;;;;;;;;;5029180;28;20045;-65
2023/01/09 02:34:07;;;;;;;3.25;0.80;;;;;;;;;;4989740;28;21048;-65
2023/01/09 02:37:11;;;;;;;2.78;0.93;;;;;;;;;;4957445;28;20054;-65
2023/01/09 02:40:09;;;;;;;3.50;0.90;;;;;;;;;;4989680;28;20066;-65
2023/01/09 02:42:43;;;;;;;4.65;0.80;;;;;;;;;;4912836;29;20056;-65
2023/01/09 02:45:13;;;;;;;4.18;0.90;;;;;;;;;;4912788;29;20071;-65
2023/01/09 02:47:45;;;;;;;4.38;0.90;;;;;;;;;;4912994;29;20052;-65
2023/01/09 02:50:30;;;;;;;4.93;0.80;;;;;;;;;;4881347;29;20078;-64
2023/01/09 02:53:36;;;;;;;3.35;0.70;;;;;;;;;;4912298;29;20052;-65
2023/01/09 02:56:32;;;;;;;6.28;0.95;;;;;;;;;;4866034;29;20657;-65
2023/01/09 02:59:20;;;;;;;5.10;1.35;;;;;;;;;;4912567;29;20060;-65
2023/01/09 03:02:21;;;;;;;2.67;1.00;;;;;;;;;;4866118;29;20068;-65
2023/01/09 03:05:08;;;;;;;6.95;1.55;;;;;;;;;;4912436;29;20056;-65
2023/01/09 03:07:43;;;;;;;2.45;1.20;;;;;;;;;;4948093;29;20444;-65
2023/01/09 03:10:22;;;;;;;6.45;1.10;;;;;;;;;;4958369;28;20569;-64
2023/01/09 03:12:53;;;;;;;3.22;1.27;;;;;;;;;;4989477;28;20058;-65
2023/01/09 03:15:31;;;;;;;6.68;0.65;;;;;;;;;;4989368;28;20486;-65
2023/01/09 03:18:06;;;;;;;3.35;1.10;;;;;;;;;;4956739;28;20442;-65
2023/01/09 03:20:37;;;;;;;4.63;0.90;;;;;;;;;;5053005;28;20606;-66
2023/01/09 03:23:08;;;;;;;9.27;1.10;;;;;;;;;;5070737;28;20048;-65
2023/01/09 03:25:37;;;;;;;5.55;1.27;;;;;;;;;;5070652;28;20044;-65
2023/01/09 03:28:17;;;;;;;4.60;0.88;;;;;;;;;;5052078;28;20052;-65
2023/01/09 03:30:47;;;;;;;6.50;1.50;;;;;;;;;;5071332;28;20036;-65
2023/01/09 03:33:17;;;;;;;3.75;1.10;;;;;;;;;;5068488;28;20071;-65
2023/01/09 03:35:46;;;;;;;4.18;0.98;;;;;;;;;;5070745;28;20041;-65
2023/01/09 03:38:16;;;;;;;3.10;1.10;;;;;;;;;;5070875;28;20037;-65
2023/01/09 03:40:46;;;;;;;4.43;1.13;;;;;;;;;;5070736;28;20044;-65
2023/01/09 03:43:16;;;;;;;4.65;0.63;;;;;;;;;;5070809;28;20083;-65
2023/01/09 03:45:45;;;;;;;6.15;1.13;;;;;;;;;;5102227;28;20060;-66
2023/01/09 03:48:15;;;;;;;6.07;1.05;;;;;;;;;;5035065;28;20063;-65
2023/01/09 03:50:47;;;;;;;5.75;1.00;;;;;;;;;;5070651;28;20503;-65
2023/01/09 03:53:19;;;;;;;7.13;1.23;;;;;;;;;;5088266;28;20080;-65
2023/01/09 03:55:51;;;;;;;5.93;1.20;;;;;;;;;;5088415;28;20052;-66
2023/01/09 03:58:23;;;;;;;7.20;0.98;;;;;;;;;;5087987;28;20428;-65
2023/01/09 04:01:02;;;;;;;4.60;1.00;;;;;;;;;;5054662;28;20059;-66
2023/01/09 04:03:33;;;;;;;4.47;1.40;;;;;;;;;;5054860;28;20063;-66
2023/01/09 04:06:04;;;;;;;5.05;0.90;;;;;;;;;;5088398;28;20082;-65
2023/01/09 04:08:34;;;;;;;6.50;0.90;;;;;;;;;;5054585;28;20217;-64
2023/01/09 04:11:04;;;;;;;3.60;0.75;;;;;;;;;;5054062;28;21195;-65
2023/01/09 04:13:34;;;;;;;5.63;1.77;;;;;;;;;;5037941;28;20498;-65
2023/01/09 04:16:04;;;;;;;3.03;1.00;;;;;;;;;;5088163;28;20067;-65
2023/01/09 04:18:33;;;;;;;4.10;1.00;;;;;;;;;;5070788;28;20048;-64
2023/01/09 04:21:03;;;;;;;3.80;0.70;;;;;;;;;;5037764;28;20056;-65
2023/01/09 04:23:33;;;;;;;4.53;0.93;;;;;;;;;;5054346;28;20063;-65
2023/01/09 04:26:03;;;;;;;3.22;0.93;;;;;;;;;;5087743;28;20071;-64
2023/01/09 04:28:33;;;;;;;5.63;1.00;;;;;;;;;;5054334;28;20066;-65
2023/01/09 04:31:04;;;;;;;3.63;1.00;;;;;;;;;;5078087;28;20531;-66
2023/01/09 04:33:33;;;;;;;4.30;1.10;;;;;;;;;;5068068;28;20048;-65
2023/01/09 04:36:04;;;;;;;5.15;1.00;;;;;;;;;;5034675;28;20433;-65
2023/01/09 04:38:33;;;;;;;4.65;1.13;;;;;;;;;;5070084;28;20591;-65
2023/01/09 04:41:03;;;;;;;4.25;0.93;;;;;;;;;;5072762;28;20040;-65
2023/01/09 04:43:33;;;;;;;3.10;0.90;;;;;;;;;;5038432;28;20127;-65
2023/01/09 04:46:02;;;;;;;3.88;1.10;;;;;;;;;;5105560;28;20052;-66
2023/01/09 04:48:33;;;;;;;7.10;1.13;;;;;;;;;;5073691;28;20400;-65
2023/01/09 04:51:03;;;;;;;6.60;1.10;;;;;;;;;;5074192;28;20396;-65
2023/01/09 04:53:32;;;;;;;4.05;0.98;;;;;;;;;;5094121;28;20048;-66
2023/01/09 04:56:02;;;;;;;3.20;1.08;;;;;;;;;;5058687;28;20418;-65
2023/01/09 04:58:32;;;;;;;3.42;0.80;;;;;;;;;;5093554;28;20035;-65
2023/01/09 05:01:01;;;;;;;5.05;1.02;;;;;;;;;;5093499;28;20055;-65
2023/01/09 05:03:31;;;;;;;5.10;1.10;;;;;;;;;;5093377;28;20407;-66
2023/01/09 05:06:01;;;;;;;5.43;1.00;;;;;;;;;;5057607;28;20052;-65
2023/01/09 05:08:30;;;;;;;3.47;0.90;;;;;;;;;;5093545;28;20047;-65
2023/01/09 05:11:00;;;;;;;3.13;1.13;;;;;;;;;;5042220;28;20404;-66
2023/01/09 05:13:30;;;;;;;3.08;0.93;;;;;;;;;;5057678;28;20066;-65
2023/01/09 05:16:00;;;;;;;2.45;1.05;;;;;;;;;;5093180;28;20043;-65
2023/01/09 05:18:30;;;;;;;2.47;0.93;;;;;;;;;;5093513;28;20052;-66
2023/01/09 05:20:59;;;;;;;4.20;1.05;;;;;;;;;;5093118;28;20044;-65
2023/01/09 05:23:29;;;;;;;3.63;1.05;;;;;;;;;;5057594;28;20056;-66
2023/01/09 05:25:59;;;;;;;3.58;0.90;;;;;;;;;;5090780;28;20052;-66
2023/01/09 05:28:31;;;;;;;5.45;1.08;;;;;;;;;;5092817;28;20531;-66
2023/01/09 05:31:01;;;;;;;5.25;1.08;;;;;;;;;;5057203;28;20059;-66
2023/01/09 05:33:31;;;;;;;5.05;1.48;;;;;;;;;;5093192;28;20406;-66
2023/01/09 05:36:00;;;;;;;3.20;1.00;;;;;;;;;;5092906;28;20419;-66
2023/01/09 05:38:30;;;;;;;2.50;0.90;;;;;;;;;;5092665;28;20044;-66
2023/01/09 05:41:01;;;;;;;4.25;1.13;;;;;;;;;;5092728;28;20052;-66
2023/01/09 05:43:32;;;;;;;1.92;0.70;;;;;;;;;;5056902;28;20044;-66
2023/01/09 05:46:01;;;;;;;4.45;0.90;;;;;;;;;;5092859;28;20040;-66
2023/01/09 05:48:31;;;;;;;2.53;0.90;;;;;;;;;;5056788;28;20077;-66
2023/01/09 05:51:01;;;;;;;3.25;1.25;;;;;;;;;;5057414;28;20420;-65
2023/01/09 05:53:32;;;;;;;2.63;0.90;;;;;;;;;;5049454;28;20068;-66
2023/01/09 05:56:01;;;;;;;3.33;0.90;;;;;;;;;;5030011;28;20053;-66
2023/01/09 05:58:31;;;;;;;4.25;0.93;;;;;;;;;;5029460;28;20052;-66
2023/01/09 06:01:01;;;;;;;4.57;1.05;;;;;;;;;;5005968;28;20057;-66
2023/01/09 06:03:31;;;;;;;3.08;1.08;;;;;;;;;;4916803;29;20062;-66
2023/01/09 06:06:01;;;;;;;3.50;0.90;;;;;;;;;;4948431;28;20059;-66
2023/01/09 06:08:30;;;;;;;3.53;0.90;;;;;;;;;;4932279;29;20548;-66
2023/01/09 06:11:00;;;;;;;4.05;1.20;;;;;;;;;;4932585;29;20059;-66
2023/01/09 06:13:30;;;;;;;6.38;1.30;;;;;;;;;;4916474;29;20184;-66
2023/01/09 06:15:59;;;;;;;2.63;0.85;;;;;;;;;;4948163;29;20062;-65
2023/01/09 06:18:29;;;;;;;5.00;1.10;;;;;;;;;;4948078;28;20058;-66
2023/01/09 06:20:59;;;;;;;3.72;0.90;;;;;;;;;;4931848;29;20066;-66
2023/01/09 06:23:28;;;;;;;3.25;1.10;;;;;;;;;;4932362;29;20050;-66
2023/01/09 06:25:58;;;;;;;2.38;1.20;;;;;;;;;;4932277;29;20071;-66
2023/01/09 06:28:27;;;;;;;2.70;0.98;;;;;;;;;;4932507;29;20428;-66
2023/01/09 06:30:58;;;;;;;3.90;1.00;;;;;;;;;;4913762;29;20063;-66
2023/01/09 06:33:28;;;;;;;4.22;1.27;;;;;;;;;;4935137;28;20529;-66
2023/01/09 06:35:58;;;;;;;3.22;0.85;;;;;;;;;;4973395;28;20456;-66
2023/01/09 06:38:28;;;;;;;4.20;1.05;;;;;;;;;;4957136;28;20446;-66
2023/01/09 06:40:57;;;;;;;2.45;0.82;;;;;;;;;;5037612;28;20063;-66
2023/01/09 06:43:27;;;;;;;3.47;0.80;;;;;;;;;;5039067;28;20052;-66
2023/01/09 06:45:57;;;;;;;5.93;1.00;;;;;;;;;;5055760;28;20063;-66
2023/01/09 06:48:27;;;;;;;4.85;1.10;;;;;;;;;;5055757;28;20415;-66
2023/01/09 06:50:57;;;;;;;4.00;1.10;;;;;;;;;;5055219;28;20074;-65
2023/01/09 06:53:27;;;;;;;2.55;1.42;;;;;;;;;;5089119;28;20470;-66
2023/01/09 06:55:56;;;;;;;5.03;1.52;;;;;;;;;;5088818;28;20381;-66
2023/01/09 06:58:26;;;;;;;2.00;0.90;;;;;;;;;;5038751;28;20056;-66
2023/01/09 07:00:58;;;;;;;3.42;1.27;;;;;;;;;;5088837;28;20072;-66
2023/01/09 07:03:28;;;;;;;;;;;;;;;;;;5088548;28;20051;-66
2023/01/09 07:06:01;;;;;;;3.72;1.45;;;;;;;;;;5088729;28;20281;-66
2023/01/09 07:08:30;;;;;;;3.25;1.40;;;;;;;;;;5088721;28;20063;-66
2023/01/09 07:11:00;;;;;;;2.42;1.10;;;;;;;;;;5054935;28;20439;-66
2023/01/09 07:13:30;;;;;;;1.98;0.73;;;;;;;;;;5038372;28;20052;-66
2023/01/09 07:16:02;;;;;;;2.67;1.10;;;;;;;;;;5054507;28;20048;-66
2023/01/09 07:18:31;;;;;;;4.97;1.23;;;;;;;;;;5088821;28;20052;-66
2023/01/09 07:21:01;;;;;;;4.75;1.08;;;;;;;;;;5038079;28;20059;-66
2023/01/09 07:23:32;;;;;;;6.32;0.93;;;;;;;;;;5089074;28;20534;-66
2023/01/09 07:26:22;;;;;;;2.42;0.73;;;;;;;;;;5046397;28;20048;-66
2023/01/09 07:28:51;;;;;;;11.32;1.48;;;;;;;;;;5088871;28;20055;-66
2023/01/09 07:31:21;;;;;;;40.80;3.28;;;;;;;;;;5088656;28;20528;-66
2023/01/09 07:33:51;;;;;;;14.45;1.77;;;;;;;;;;5055086;28;20060;-66
2023/01/09 07:36:21;;;;;;;17.08;2.58;;;;;;;;;;5071623;28;20095;-66
2023/01/09 07:38:51;;;;;;;17.05;2.75;;;;;;;;;;5088443;28;20048;-66
2023/01/09 07:41:20;;;;;;;10.63;1.92;;;;;;;;;;5088316;28;20059;-66
2023/01/09 07:43:50;;;;;;;33.83;2.17;;;;;;;;;;5038433;28;20048;-66
2023/01/09 07:46:19;;;;;;;14.93;1.70;;;;;;;;;;5068209;28;20497;-66
2023/01/09 07:48:49;;;;;;;4.07;1.05;;;;;;;;;;5034732;28;20061;-65
2023/01/09 07:51:20;;;;;;;3.10;0.88;;;;;;;;;;5050891;28;20520;-65
2023/01/09 07:53:49;;;;;;;4.00;1.10;;;;;;;;;;5051313;28;20049;-66
2023/01/09 07:56:19;;;;;;;6.22;1.15;;;;;;;;;;5067789;28;20635;-65
2023/01/09 07:58:50;;;;;;;5.20;1.20;;;;;;;;;;5067867;28;20053;-65
2023/01/09 08:01:19;;;;;;;3.42;1.00;;;;;;;;;;5068044;28;20485;-65
2023/01/09 08:03:49;;;;;;;5.38;0.98;;;;;;;;;;5039806;28;20474;-65
2023/01/09 08:06:19;;;;;;;2.03;1.08;;;;;;;;;;5067930;28;20408;-65
2023/01/09 08:08:49;;;;;;;3.75;1.20;;;;;;;;;;5068119;28;20048;-66
2023/01/09 08:11:18;;;;;;;3.50;0.90;;;;;;;;;;5067813;28;20103;-65
2023/01/09 08:13:48;;;;;;;7.03;1.10;;;;;;;;;;5034585;28;20057;-66
2023/01/09 08:16:18;;;;;;;6.63;1.25;;;;;;;;;;5070967;28;20508;-65
2023/01/09 08:18:47;;;;;;;4.72;1.42;;;;;;;;;;5071860;28;20045;-66
2023/01/09 08:21:17;;;;;;;4.60;1.23;;;;;;;;;;5006299;28;20056;-66
2023/01/09 08:23:47;;;;;;;4.60;1.10;;;;;;;;;;5020512;28;20056;-66
2023/01/09 08:26:18;;;;;;;2.67;1.00;;;;;;;;;;5094363;28;20044;-65
2023/01/09 08:28:47;;;;;;;2.05;0.90;;;;;;;;;;5094159;28;20052;-66
2023/01/09 08:31:17;;;;;;;5.28;1.00;;;;;;;;;;5093933;28;20054;-65
2023/01/09 08:33:48;;;;;;;3.38;1.20;;;;;;;;;;5094069;28;20044;-66
2023/01/09 08:36:17;;;;;;;3.30;1.10;;;;;;;;;;5074990;28;20063;-66
2023/01/09 08:38:47;;;;;;;4.78;0.90;;;;;;;;;;5041795;28;20056;-66
2023/01/09 08:47:05;;;;;;;2.47;1.20;;;;;;;;;;5093937;28;20036;-66
2023/01/09 08:49:38;;;;;;;4.07;0.80;;;;;;;;;;5041872;28;20070;-66
2023/01/09 08:52:08;;;;;;;4.03;1.30;;;;;;;;;;5094240;28;20488;-66
2023/01/09 08:54:37;;;;;;;6.43;1.38;;;;;;;;;;5059056;28;20059;-65
2023/01/09 08:57:07;;;;;;;2.90;1.20;;;;;;;;;;5058006;28;20060;-66
2023/01/09 08:59:37;;;;;;;5.50;1.25;;;;;;;;;;5057525;28;20052;-66
2023/01/09 09:02:07;;;;;;;6.57;1.30;;;;;;;;;;5093557;28;20055;-65
2023/01/09 09:04:36;;;;;;;7.82;1.77;;;;;;;;;;5093852;28;20055;-66
2023/01/09 09:07:06;;;;;;;3.80;1.05;;;;;;;;;;5093370;28;20043;-66
2023/01/09 09:09:35;;;;;;;6.88;1.40;;;;;;;;;;5093772;28;20133;-65
2023/01/09 09:12:05;;;;;;;4.85;1.13;;;;;;;;;;5040956;28;20052;-66
2023/01/09 09:17:23;;;;;;;2.15;1.13;;;;;;;;;;5074065;28;20048;-66
2023/01/09 09:19:53;;;;;;;3.25;1.20;;;;;;;;;;5093237;28;20040;-66
2023/01/09 09:22:23;;;;;;;7.28;1.42;;;;;;;;;;4993336;28;20546;-66
2023/01/09 09:24:53;;;;;;;8.50;1.30;;;;;;;;;;5040884;28;20048;-66
2023/01/09 09:27:23;;;;;;;3.72;1.00;;;;;;;;;;5092478;28;20051;-66
2023/01/09 09:29:53;;;;;;;3.83;0.80;;;;;;;;;;5057735;28;20614;-66
2023/01/09 09:32:23;;;;;;;4.75;1.65;;;;;;;;;;5056693;28;20521;-66
2023/01/09 09:34:53;;;;;;;4.45;1.40;;;;;;;;;;5057424;28;20506;-66
2023/01/09 09:37:23;;;;;;;6.95;1.20;;;;;;;;;;5092964;28;20063;-67
2023/01/09 09:39:53;;;;;;;7.22;1.30;;;;;;;;;;5092929;28;20040;-66
2023/01/09 09:45:50;;;;;;;5.55;1.42;;;;;;;;;;5092918;28;20045;-66
2023/01/09 09:48:24;;;;;;;12.73;1.40;;;;;;;;;;5092743;28;20058;-66
2023/01/09 09:51:32;;;;;;;3.90;1.40;;;;;;;;;;5092379;28;20047;-67
2023/01/09 09:54:09;;;;;;;9.23;1.58;;;;;;;;;;5009737;28;20069;-66
2023/01/09 09:56:49;;;;;;;4.60;1.40;;;;;;;;;;5010253;28;20062;-66
2023/01/09 09:59:21;;;;;;;;;;;;;;;;;;5009932;28;20053;-66
2023/01/09 10:01:59;;;;;;;7.95;1.80;;;;;;;;;;5005474;28;19928;-67
2023/01/09 10:04:32;;;;;;;7.15;1.30;;;;;;;;;;4981409;28;20045;-67
2023/01/09 10:07:08;;;;;;;3.22;1.45;;;;;;;;;;4992696;28;20145;-66
2023/01/09 10:09:56;;;;;;;4.53;1.45;;;;;;;;;;5009206;28;20053;-67
2023/01/09 10:12:57;;;;;;;4.50;1.45;;;;;;;;;;5006356;28;20513;-66
2023/01/09 10:15:54;;;;;;;7.75;1.40;;;;;;;;;;4948506;29;20046;-67
2023/01/09 10:18:42;;;;;;;7.32;1.30;;;;;;;;;;4948742;29;20051;-67
2023/01/09 10:21:26;;;;;;;4.72;1.30;;;;;;;;;;4874867;29;20048;-67
2023/01/09 10:24:24;;;;;;;5.32;1.40;;;;;;;;;;4930660;29;20051;-67
2023/01/09 10:26:53;;;;;;;;;;;;;;;;;;4932782;29;20078;-66
2023/01/09 10:30:01;;;;;;;4.72;1.33;;;;;;;;;;4897800;28;19926;-66
2023/01/09 10:33:21;;;;;;;7.18;1.20;;;;;;;;;;4870843;29;20533;-67
2023/01/09 10:36:05;;;;;;;7.07;1.40;;;;;;;;;;4837448;29;20050;-66
2023/01/09 10:38:39;;;;;;;3.13;1.17;;;;;;;;;;4856257;29;20073;-66
2023/01/09 10:41:12;;;;;;;4.25;1.50;;;;;;;;;;4856635;29;20414;-66
2023/01/09 10:43:55;;;;;;;4.18;1.10;;;;;;;;;;4857065;29;20049;-66
2023/01/09 10:46:53;;;;;;;4.63;1.00;;;;;;;;;;4826124;29;20072;-66
2023/01/09 10:49:25;;;;;;;2.20;0.88;;;;;;;;;;4856811;29;20057;-66
2023/01/09 10:52:16;;;;;;;4.88;1.10;;;;;;;;;;4846985;29;20271;-66
2023/01/09 10:54:57;;;;;;;6.13;1.15;;;;;;;;;;4878109;29;20060;-66
2023/01/09 10:57:42;;;;;;;3.10;1.10;;;;;;;;;;4893855;29;20068;-66
2023/01/09 11:00:17;;;;;;;3.15;1.00;;;;;;;;;;4866041;29;20063;-66
2023/01/09 11:02:52;;;;;;;5.45;2.50;;;;;;;;;;4844632;29;20065;-66
2023/01/09 11:05:28;;;;;;;2.50;1.13;;;;;;;;;;4862456;29;20057;-67
2023/01/09 11:08:11;;;;;;;5.10;0.60;;;;;;;;;;4939239;29;20090;-66
2023/01/09 11:10:54;;;;;;;2.08;0.80;;;;;;;;;;4916200;28;20062;-65
2023/01/09 11:13:35;;;;;;;4.25;0.60;;;;;;;;;;4989326;28;20426;-65
2023/01/09 11:16:13;;;;;;;1.52;0.40;;;;;;;;;;4989161;28;20054;-64
2023/01/09 11:18:51;;;;;;;1.90;0.50;;;;;;;;;;4989284;28;20058;-65
2023/01/09 11:21:28;;;;;;;1.15;0.47;;;;;;;;;;4989185;28;20050;-65
2023/01/09 11:24:25;;;;;;;2.20;0.65;;;;;;;;;;4972694;28;20094;-65
2023/01/09 11:27:13;;;;;;;2.45;0.75;;;;;;;;;;4988888;28;20073;-65
2023/01/09 11:29:43;;;;;;;4.47;0.63;;;;;;;;;;4989068;28;20062;-65
2023/01/09 11:32:23;;;;;;;3.55;0.77;;;;;;;;;;4996842;28;20183;-65
2023/01/09 11:34:54;;;;;;;1.02;0.60;;;;;;;;;;4959800;28;21080;-65
2023/01/09 11:37:29;;;;;;;1.27;0.60;;;;;;;;;;5008806;28;20050;-65
2023/01/09 11:40:00;;;;;;;1.60;0.45;;;;;;;;;;5008464;28;20069;-65
2023/01/09 11:45:20;;;;;;;1.30;0.50;;;;;;;;;;5006120;28;20505;-65
2023/01/09 11:47:51;;;;;;;3.90;0.70;;;;;;;;;;5004559;28;20077;-66
2023/01/09 11:50:38;;;;;;;1.88;0.80;;;;;;;;;;5060773;28;20049;-65
2023/01/09 11:53:19;;;;;;;1.40;0.70;;;;;;;;;;5062048;28;20057;-66
2023/01/09 11:56:02;;;;;;;1.83;0.68;;;;;;;;;;5066481;28;20056;-65
2023/01/09 11:58:34;;;;;;;0.95;0.60;;;;;;;;;;5038936;28;20056;-65
2023/01/09 12:01:22;;;;;;;4.78;0.50;;;;;;;;;;5038588;28;20056;-65
2023/01/09 12:04:07;;;;;;;2.58;0.77;;;;;;;;;;5063675;28;20064;-67
2023/01/09 12:06:56;;;;;;;1.67;0.70;;;;;;;;;;5044430;28;20057;-65
2023/01/09 12:10:02;;;;;;;1.20;0.50;;;;;;;;;;5059750;28;20459;-64
2023/01/09 12:12:41;;;;;;;2.50;0.98;;;;;;;;;;4986426;28;20387;-64
2023/01/09 12:15:28;;;;;;;1.15;0.73;;;;;;;;;;5025614;28;20054;-65
2023/01/09 12:18:33;;;;;;;1.55;0.50;;;;;;;;;;5044302;28;20061;-66
2023/01/09 12:21:30;;;;;;;1.80;0.80;;;;;;;;;;4959084;28;20045;-65
2023/01/09 12:24:15;;;;;;;;;;;;;;;;;;4986601;28;20103;-65
2023/01/09 12:27:06;;;;;;;1.92;0.50;;;;;;;;;;4955893;28;19921;-66
2023/01/09 12:29:59;;;;;;;5.65;3.38;;;;;;;;;;4999245;28;20585;-65
2023/01/09 12:32:38;;;;;;;1.35;0.70;;;;;;;;;;4963626;28;20058;-65
2023/01/09 12:35:45;;;;;;;1.75;0.63;;;;;;;;;;4968863;28;20080;-65
2023/01/09 12:38:39;;;;;;;2.40;0.80;;;;;;;;;;4989849;28;20080;-66
2023/01/09 12:41:22;;;;;;;1.17;0.63;;;;;;;;;;5006128;28;20042;-65
2023/01/09 12:44:18;;;;;;;3.75;0.93;;;;;;;;;;5009741;28;20058;-66
2023/01/09 12:47:02;;;;;;;2.15;0.60;;;;;;;;;;4994314;28;20073;-65
2023/01/09 12:50:01;;;;;;;2.15;0.57;;;;;;;;;;4988664;28;20053;-65
2023/01/09 12:52:36;;;;;;;1.23;0.90;;;;;;;;;;5021159;28;21344;-65
2023/01/09 12:55:22;;;;;;;4.07;0.50;;;;;;;;;;5040109;28;20408;-65
2023/01/09 12:57:56;;;;;;;0.88;0.40;;;;;;;;;;5040822;28;20057;-66
2023/01/09 13:00:31;;;;;;;1.90;0.50;;;;;;;;;;5031374;28;20056;-66
2023/01/09 13:03:04;;;;;;;1.45;0.52;;;;;;;;;;5038319;28;20052;-66
2023/01/09 13:05:50;;;;;;;3.67;1.60;;;;;;;;;;5057244;28;20492;-66
2023/01/09 13:08:35;;;;;;;3.00;1.17;;;;;;;;;;5053079;28;20049;-66
2023/01/09 13:11:26;;;;;;;1.63;0.50;;;;;;;;;;5064837;28;20044;-64
2023/01/09 13:14:11;;;;;;;1.15;0.70;;;;;;;;;;5073358;28;20052;-65
2023/01/09 13:16:48;;;;;;;3.42;1.40;;;;;;;;;;5086873;28;20052;-65
2023/01/09 13:19:20;;;;;;;2.55;1.45;;;;;;;;;;5069988;28;20052;-66
2023/01/09 13:21:51;;;;;;;2.47;1.13;;;;;;;;;;5032574;28;20041;-67
2023/01/09 13:24:42;;;;;;;1.17;0.47;;;;;;;;;;4977731;28;20046;-65
2023/01/09 13:27:22;;;;;;;3.00;0.55;;;;;;;;;;4993122;28;20045;-68
2023/01/09 13:30:14;;;;;;;3.25;1.48;;;;;;;;;;5007985;28;20445;-66
2023/01/09 13:33:16;;;;;;;5.25;1.75;;;;;;;;;;5008279;28;20060;-66
2023/01/09 13:35:52;;;;;;;1.40;0.77;;;;;;;;;;4969240;28;20073;-66
2023/01/09 13:38:28;;;;;;;3.22;0.77;;;;;;;;;;4991472;28;20045;-65
2023/01/09 13:44:06;;;;;;;2.70;2.13;;;;;;;;;;5008205;28;20058;-66
2023/01/09 13:46:48;;;;;;;2.20;1.30;;;;;;;;;;5008643;28;20065;-67
2023/01/09 13:49:42;;;;;;;2.25;0.98;;;;;;;;;;4975984;28;20422;-65
2023/01/09 13:52:23;;;;;;;0.93;0.40;;;;;;;;;;5001546;28;20152;-66
2023/01/09 13:54:59;;;;;;;1.23;0.52;;;;;;;;;;5007775;28;20062;-65
2023/01/09 13:57:35;;;;;;;1.55;0.85;;;;;;;;;;5002541;28;20076;-66
2023/01/09 14:00:14;;;;;;;1.70;0.52;;;;;;;;;;5027613;28;20096;-67
2023/01/09 14:02:48;;;;;;;1.17;0.60;;;;;;;;;;5059996;28;20450;-66
2023/01/09 14:05:24;;;;;;;1.33;0.60;;;;;;;;;;5059077;28;20512;-66
2023/01/09 14:08:14;;;;;;;0.90;0.70;;;;;;;;;;5061444;28;20416;-67
2023/01/09 14:10:49;;;;;;;0.80;0.40;;;;;;;;;;5063839;28;20036;-66
2023/01/09 14:13:29;;;;;;;2.45;0.52;;;;;;;;;;5057005;28;20052;-66
2023/01/09 14:16:19;;;;;;;1.48;0.52;;;;;;;;;;5059636;28;20056;-67
2023/01/09 14:19:15;;;;;;;1.70;0.50;;;;;;;;;;5045296;28;20053;-66
2023/01/09 14:21:56;;;;;;;3.45;0.47;;;;;;;;;;5032276;28;20057;-64
2023/01/09 14:24:31;;;;;;;0.85;0.50;;;;;;;;;;5044755;28;20542;-65
2023/01/09 14:27:01;;;;;;;3.13;0.52;;;;;;;;;;5063213;28;20044;-66
2023/01/09 14:29:34;;;;;;;3.33;1.25;;;;;;;;;;5016243;28;20059;-67
2023/01/09 14:32:25;;;;;;;0.95;0.47;;;;;;;;;;5051409;28;20040;-66
2023/01/09 14:34:56;;;;;;;;;;;;;;;;;;5052053;28;20049;-66
2023/01/09 14:37:29;;;;;;;0.70;0.43;;;;;;;;;;5016353;28;20516;-66
2023/01/09 14:40:00;;;;;;;2.63;1.08;;;;;;;;;;5051256;28;20041;-64
2023/01/09 14:42:33;;;;;;;0.95;0.50;;;;;;;;;;5051474;28;20037;-65
2023/01/09 14:45:15;;;;;;;2.28;0.45;;;;;;;;;;5051319;28;20049;-66
2023/01/09 14:47:52;;;;;;;2.90;0.85;;;;;;;;;;5049103;28;20048;-66
2023/01/09 14:50:46;;;;;;;2.13;0.60;;;;;;;;;;5051287;28;20045;-66
2023/01/09 14:53:33;;;;;;;1.42;0.50;;;;;;;;;;5070638;28;20481;-65
2023/01/09 14:56:06;;;;;;;1.10;0.43;;;;;;;;;;5071433;28;20040;-66
2023/01/09 14:58:36;;;;;;;2.33;0.65;;;;;;;;;;5068814;28;20056;-66
2023/01/09 15:01:22;;;;;;;1.13;0.55;;;;;;;;;;5077772;28;20484;-65
2023/01/09 15:04:00;;;;;;;1.08;0.32;;;;;;;;;;5065042;28;20059;-65
2023/01/09 15:06:36;;;;;;;0.80;0.55;;;;;;;;;;5080599;28;20055;-65
2023/01/09 15:09:20;;;;;;;1.60;0.52;;;;;;;;;;5084012;28;20043;-65
2023/01/09 15:11:51;;;;;;;;;;;;;;;;;;5086982;28;20057;-64
2023/01/09 15:14:31;;;;;;;;;;;;;;;;;;5081090;28;19927;-65
2023/01/09 15:17:03;;;;;;;1.67;0.40;;;;;;;;;;5052524;28;19920;-66
2023/01/09 15:19:33;;;;;;;1.98;0.43;;;;;;;;;;5090885;28;20407;-67
2023/01/09 15:22:05;;;;;;;0.60;0.47;;;;;;;;;;5037693;28;20503;-66
2023/01/09 15:24:36;;;;;;;3.42;0.50;;;;;;;;;;5081596;28;20044;-65
2023/01/09 15:27:17;;;;;;;1.55;0.47;;;;;;;;;;5079536;28;20586;-65
2023/01/09 15:29:48;;;;;;;1.33;0.63;;;;;;;;;;5033316;28;20393;-65
2023/01/09 15:32:27;;;;;;;1.95;0.50;;;;;;;;;;4996655;28;20045;-67
2023/01/09 15:34:58;;;;;;;1.48;0.50;;;;;;;;;;5045029;28;20062;-66
2023/01/09 15:37:35;;;;;;;2.15;0.55;;;;;;;;;;5047280;28;20056;-66
2023/01/09 15:40:20;;;;;;;1.40;0.50;;;;;;;;;;5021310;28;20063;-66
2023/01/09 15:42:57;;;;;;;1.42;0.32;;;;;;;;;;5047467;28;20437;-66
2023/01/09 15:45:39;;;;;;;0.57;0.40;;;;;;;;;;5031581;28;20064;-66
2023/01/09 15:48:28;;;;;;;0.70;0.50;;;;;;;;;;5044175;28;20048;-65
2023/01/09 15:51:17;;;;;;;0.70;0.40;;;;;;;;;;5026351;28;20064;-68
2023/01/09 15:53:52;;;;;;;2.03;0.40;;;;;;;;;;5028356;28;20145;-66
2023/01/09 15:56:30;;;;;;;2.92;0.40;;;;;;;;;;5028432;28;20065;-69
2023/01/09 15:59:00;;;;;;;0.57;0.30;;;;;;;;;;5027955;28;20046;-66